sensor_id;sensor_type;location;lat;lon;timestamp;pressure;altitude;pressure_sealevel;temperature;humidity
79004;BME280;77021;51.052;17.034;2024-03-23T00:55:14;99397.61;;;8.97;82.22
79004;BME280;77021;51.052;17.034;2024-03-23T00:58:00;99391.08;;;8.98;81.78
79004;BME280;77021;51.052;17.034;2024-03-23T01:00:47;99388.79;;;8.98;82.07
79004;BME280;77021;51.052;17.034;2024-03-23T01:03:33;99387.71;;;8.99;81.86
79004;BME280;77021;51.052;17.034;2024-03-23T01:06:19;99385.49;;;9.02;81.96
79004;BME280;77021;51.052;17.034;2024-03-23T01:09:05;99382.98;;;9.03;81.64
79004;BME280;77021;51.052;17.034;2024-03-23T01:11:52;99374.74;;;9.03;81.66
79004;BME280;77021;51.052;17.034;2024-03-23T01:14:38;99371.31;;;9.02;81.68
79004;BME280;77021;51.052;17.034;2024-03-23T01:17:24;99370.63;;;9.02;81.63
79004;BME280;77021;51.052;17.034;2024-03-23T01:20:10;99362.60;;;9.02;81.63
79004;BME280;77021;51.052;17.034;2024-03-23T01:32:00;99340.27;;;9.02;81.44
79004;BME280;77021;51.052;17.034;2024-03-23T01:34:46;99336.92;;;9.02;81.42
79004;BME280;77021;51.052;17.034;2024-03-23T01:37:32;99330.81;;;9.02;81.63
79004;BME280;77021;51.052;17.034;2024-03-23T01:40:18;99318.39;;;9.03;81.32
79004;BME280;77021;51.052;17.034;2024-03-23T01:43:07;99312.88;;;9.05;80.89
79004;BME280;77021;51.052;17.034;2024-03-23T01:45:53;99306.85;;;9.06;80.68
79004;BME280;77021;51.052;17.034;2024-03-23T01:48:40;99300.77;;;9.06;80.98
79004;BME280;77021;51.052;17.034;2024-03-23T01:55:39;99287.92;;;8.98;80.66
79004;BME280;77021;51.052;17.034;2024-03-23T01:58:25;99285.10;;;8.95;80.60
79004;BME280;77021;51.052;17.034;2024-03-23T02:01:11;99283.06;;;8.94;80.76
79004;BME280;77021;51.052;17.034;2024-03-23T02:03:58;99282.06;;;8.92;80.74
79004;BME280;77021;51.052;17.034;2024-03-23T02:06:44;99276.64;;;8.93;80.81
79004;BME280;77021;51.052;17.034;2024-03-23T02:09:30;99277.27;;;8.94;80.44
79004;BME280;77021;51.052;17.034;2024-03-23T02:12:18;99273.73;;;8.96;80.32
79004;BME280;77021;51.052;17.034;2024-03-23T02:15:04;99271.28;;;8.96;80.36
79004;BME280;77021;51.052;17.034;2024-03-23T02:17:51;99278.94;;;8.96;80.59
79004;BME280;77021;51.052;17.034;2024-03-23T02:20:39;99270.61;;;8.95;80.75
79004;BME280;77021;51.052;17.034;2024-03-23T02:23:25;99262.60;;;8.91;80.72
79004;BME280;77021;51.052;17.034;2024-03-23T02:26:12;99254.31;;;8.89;81.06
79004;BME280;77021;51.052;17.034;2024-03-23T02:28:59;99248.93;;;8.89;80.60
79004;BME280;77021;51.052;17.034;2024-03-23T02:31:45;99241.78;;;8.88;80.86
79004;BME280;77021;51.052;17.034;2024-03-23T02:34:31;99234.14;;;8.88;81.00
79004;BME280;77021;51.052;17.034;2024-03-23T02:37:17;99235.91;;;8.87;81.23
79004;BME280;77021;51.052;17.034;2024-03-23T02:40:04;99237.67;;;8.87;81.26
79004;BME280;77021;51.052;17.034;2024-03-23T02:42:51;99234.54;;;8.87;81.15
79004;BME280;77021;51.052;17.034;2024-03-23T02:45:37;99226.23;;;8.86;81.27
79004;BME280;77021;51.052;17.034;2024-03-23T02:48:23;99221.89;;;8.85;81.26
79004;BME280;77021;51.052;17.034;2024-03-23T02:51:10;99223.54;;;8.84;81.38
79004;BME280;77021;51.052;17.034;2024-03-23T02:53:56;99219.42;;;8.82;81.44
79004;BME280;77021;51.052;17.034;2024-03-23T02:56:42;99217.54;;;8.82;81.34
79004;BME280;77021;51.052;17.034;2024-03-23T02:59:29;99209.16;;;8.82;81.76
79004;BME280;77021;51.052;17.034;2024-03-23T03:02:15;99202.58;;;8.81;81.36
79004;BME280;77021;51.052;17.034;2024-03-23T03:05:03;99198.56;;;8.81;81.51
79004;BME280;77021;51.052;17.034;2024-03-23T03:07:51;99197.08;;;8.82;81.55
79004;BME280;77021;51.052;17.034;2024-03-23T03:10:37;99196.33;;;8.84;81.79
79004;BME280;77021;51.052;17.034;2024-03-23T03:13:23;99193.86;;;8.84;81.64
79004;BME280;77021;51.052;17.034;2024-03-23T03:16:12;99188.78;;;8.84;81.63
79004;BME280;77021;51.052;17.034;2024-03-23T03:18:59;99185.45;;;8.85;81.54
79004;BME280;77021;51.052;17.034;2024-03-23T03:21:46;99179.42;;;8.87;81.58
79004;BME280;77021;51.052;17.034;2024-03-23T03:24:33;99174.27;;;8.88;81.34
79004;BME280;77021;51.052;17.034;2024-03-23T03:27:20;99178.08;;;8.92;81.39
79004;BME280;77021;51.052;17.034;2024-03-23T03:30:11;99169.28;;;8.97;81.28
79004;BME280;77021;51.052;17.034;2024-03-23T03:32:57;99162.27;;;9.00;81.20
79004;BME280;77021;51.052;17.034;2024-03-23T03:35:44;99156.13;;;9.01;81.05
79004;BME280;77021;51.052;17.034;2024-03-23T03:38:31;99154.55;;;8.94;80.99
79004;BME280;77021;51.052;17.034;2024-03-23T03:44:55;99153.84;;;8.92;81.09
79004;BME280;77021;51.052;17.034;2024-03-23T03:47:41;99154.89;;;8.92;81.21
79004;BME280;77021;51.052;17.034;2024-03-23T03:50:28;99148.14;;;8.90;80.97
79004;BME280;77021;51.052;17.034;2024-03-23T03:53:14;99144.66;;;8.87;81.01
79004;BME280;77021;51.052;17.034;2024-03-23T03:56:01;99137.54;;;8.83;81.15
79004;BME280;77021;51.052;17.034;2024-03-23T03:58:49;99134.52;;;8.81;81.13
79004;BME280;77021;51.052;17.034;2024-03-23T04:01:36;99132.21;;;8.82;81.14
79004;BME280;77021;51.052;17.034;2024-03-23T04:04:23;99134.45;;;8.86;81.31
79004;BME280;77021;51.052;17.034;2024-03-23T04:07:09;99131.02;;;8.87;80.91
79004;BME280;77021;51.052;17.034;2024-03-23T04:09:55;99135.17;;;8.85;80.85
79004;BME280;77021;51.052;17.034;2024-03-23T04:12:47;99139.68;;;8.82;80.95
79004;BME280;77021;51.052;17.034;2024-03-23T04:15:33;99135.09;;;8.80;80.94
79004;BME280;77021;51.052;17.034;2024-03-23T04:18:08;99134.35;;;8.78;80.98
79004;BME280;77021;51.052;17.034;2024-03-23T04:20:55;99134.89;;;8.74;81.17
79004;BME280;77021;51.052;17.034;2024-03-23T04:23:43;99138.16;;;8.71;81.31
79004;BME280;77021;51.052;17.034;2024-03-23T04:26:29;99134.39;;;8.67;81.18
79004;BME280;77021;51.052;17.034;2024-03-23T04:29:15;99135.97;;;8.64;81.21
79004;BME280;77021;51.052;17.034;2024-03-23T04:32:01;99134.01;;;8.61;81.25
79004;BME280;77021;51.052;17.034;2024-03-23T04:34:48;99132.13;;;8.60;81.02
79004;BME280;77021;51.052;17.034;2024-03-23T04:37:34;99136.66;;;8.57;81.04
79004;BME280;77021;51.052;17.034;2024-03-23T04:40:20;99140.77;;;8.52;81.05
79004;BME280;77021;51.052;17.034;2024-03-23T04:43:06;99142.13;;;8.46;81.10
79004;BME280;77021;51.052;17.034;2024-03-23T04:45:53;99135.73;;;8.38;81.02
79004;BME280;77021;51.052;17.034;2024-03-23T04:48:39;99131.45;;;8.30;81.59
79004;BME280;77021;51.052;17.034;2024-03-23T04:51:25;99126.95;;;8.22;81.58
79004;BME280;77021;51.052;17.034;2024-03-23T04:54:12;99125.13;;;8.17;81.64
79004;BME280;77021;51.052;17.034;2024-03-23T04:56:59;99122.98;;;8.11;81.63
79004;BME280;77021;51.052;17.034;2024-03-23T04:59:45;99119.36;;;8.03;81.53
79004;BME280;77021;51.052;17.034;2024-03-23T05:02:31;99113.00;;;7.95;82.19
79004;BME280;77021;51.052;17.034;2024-03-23T05:05:19;99107.05;;;7.89;81.89
79004;BME280;77021;51.052;17.034;2024-03-23T05:08:09;99100.02;;;7.83;82.17
79004;BME280;77021;51.052;17.034;2024-03-23T05:10:55;99100.02;;;7.79;82.48
79004;BME280;77021;51.052;17.034;2024-03-23T05:13:43;99103.17;;;7.76;82.92
79004;BME280;77021;51.052;17.034;2024-03-23T05:16:30;99103.80;;;7.74;82.58
79004;BME280;77021;51.052;17.034;2024-03-23T05:19:15;99105.42;;;7.73;82.25
79004;BME280;77021;51.052;17.034;2024-03-23T05:22:02;99097.05;;;7.70;82.16
79004;BME280;77021;51.052;17.034;2024-03-23T05:24:48;99103.80;;;7.67;82.29
79004;BME280;77021;51.052;17.034;2024-03-23T05:27:35;99101.52;;;7.63;82.19
79004;BME280;77021;51.052;17.034;2024-03-23T05:30:22;99097.20;;;7.63;82.64
79004;BME280;77021;51.052;17.034;2024-03-23T05:33:08;99093.48;;;7.64;82.69
79004;BME280;77021;51.052;17.034;2024-03-23T05:35:58;99083.09;;;7.66;82.89
79004;BME280;77021;51.052;17.034;2024-03-23T05:38:44;99081.15;;;7.70;83.02
79004;BME280;77021;51.052;17.034;2024-03-23T05:41:30;99082.04;;;7.77;82.56
79004;BME280;77021;51.052;17.034;2024-03-23T05:44:16;99078.60;;;7.83;82.70
79004;BME280;77021;51.052;17.034;2024-03-23T05:47:03;99076.86;;;7.93;83.14
79004;BME280;77021;51.052;17.034;2024-03-23T05:49:50;99073.81;;;8.05;83.03
79004;BME280;77021;51.052;17.034;2024-03-23T05:52:39;99071.02;;;8.18;82.85
79004;BME280;77021;51.052;17.034;2024-03-23T05:55:27;99063.45;;;8.29;82.84
79004;BME280;77021;51.052;17.034;2024-03-23T05:58:17;99063.46;;;8.43;82.43
79004;BME280;77021;51.052;17.034;2024-03-23T06:01:07;99057.19;;;8.59;82.07
79004;BME280;77021;51.052;17.034;2024-03-23T06:03:53;99055.04;;;8.76;81.91
79004;BME280;77021;51.052;17.034;2024-03-23T06:06:39;99047.77;;;8.94;81.96
79004;BME280;77021;51.052;17.034;2024-03-23T06:14:22;99051.61;;;9.31;80.93
79004;BME280;77021;51.052;17.034;2024-03-23T06:17:08;99061.77;;;9.52;80.39
79004;BME280;77021;51.052;17.034;2024-03-23T06:19:57;99065.45;;;9.75;80.29
79004;BME280;77021;51.052;17.034;2024-03-23T06:22:43;99068.36;;;10.00;79.50
79004;BME280;77021;51.052;17.034;2024-03-23T06:25:31;99077.58;;;10.27;79.53
79004;BME280;77021;51.052;17.034;2024-03-23T06:28:17;99076.22;;;10.63;79.13
79004;BME280;77021;51.052;17.034;2024-03-23T06:31:09;99073.25;;;10.85;77.58
79004;BME280;77021;51.052;17.034;2024-03-23T06:33:56;99065.42;;;11.01;77.16
79004;BME280;77021;51.052;17.034;2024-03-23T06:36:42;99061.11;;;11.14;76.46
79004;BME280;77021;51.052;17.034;2024-03-23T06:39:29;99043.85;;;11.18;75.89
79004;BME280;77021;51.052;17.034;2024-03-23T06:46:34;99014.22;;;11.10;75.40
79004;BME280;77021;51.052;17.034;2024-03-23T06:49:24;99011.30;;;11.15;75.52
79004;BME280;77021;51.052;17.034;2024-03-23T06:52:10;99010.70;;;11.29;75.56
79004;BME280;77021;51.052;17.034;2024-03-23T06:54:57;99010.42;;;11.47;75.64
79004;BME280;77021;51.052;17.034;2024-03-23T06:57:43;99007.50;;;11.69;74.99
79004;BME280;77021;51.052;17.034;2024-03-23T07:00:31;99002.92;;;12.08;74.21
79004;BME280;77021;51.052;17.034;2024-03-23T07:03:18;98997.27;;;12.29;72.85
79004;BME280;77021;51.052;17.034;2024-03-23T07:06:04;98993.05;;;12.53;73.17
79004;BME280;77021;51.052;17.034;2024-03-23T07:08:52;98991.05;;;13.36;72.29
79004;BME280;77021;51.052;17.034;2024-03-23T07:11:38;98982.38;;;14.44;70.42
79004;BME280;77021;51.052;17.034;2024-03-23T09:46:45;98652.16;;;13.80;60.84
79004;BME280;77021;51.052;17.034;2024-03-23T09:49:30;98641.52;;;14.06;61.34
79004;BME280;77021;51.052;17.034;2024-03-23T09:52:15;98638.48;;;14.30;60.14
79004;BME280;77021;51.052;17.034;2024-03-23T09:55:00;98624.27;;;14.46;60.17
79004;BME280;77021;51.052;17.034;2024-03-23T09:57:47;98615.96;;;14.54;59.54
79004;BME280;77021;51.052;17.034;2024-03-23T10:00:33;98605.10;;;14.60;59.38
79004;BME280;77021;51.052;17.034;2024-03-23T10:03:19;98599.23;;;14.63;59.55
79004;BME280;77021;51.052;17.034;2024-03-23T10:06:04;98591.20;;;14.66;60.25
79004;BME280;77021;51.052;17.034;2024-03-23T10:08:52;98586.55;;;14.75;60.21
79004;BME280;77021;51.052;17.034;2024-03-23T10:11:37;98580.25;;;14.99;59.40
79004;BME280;77021;51.052;17.034;2024-03-23T10:14:30;98579.46;;;15.29;58.93
79004;BME280;77021;51.052;17.034;2024-03-23T10:17:18;98574.89;;;15.61;58.41
79004;BME280;77021;51.052;17.034;2024-03-23T10:20:09;98574.44;;;16.06;58.64
79004;BME280;77021;51.052;17.034;2024-03-23T10:22:56;98574.70;;;16.50;56.90
79004;BME280;77021;51.052;17.034;2024-03-23T10:25:41;98567.27;;;16.82;55.78
79004;BME280;77021;51.052;17.034;2024-03-23T10:28:26;98566.83;;;16.98;56.30
79004;BME280;77021;51.052;17.034;2024-03-23T10:31:11;98558.08;;;16.97;55.51
79004;BME280;77021;51.052;17.034;2024-03-23T10:33:59;98556.21;;;16.89;55.71
79004;BME280;77021;51.052;17.034;2024-03-23T10:36:47;98546.41;;;16.78;55.43
79004;BME280;77021;51.052;17.034;2024-03-23T10:39:42;98540.14;;;16.70;54.48
79004;BME280;77021;51.052;17.034;2024-03-23T10:42:28;98530.48;;;16.62;54.79
79004;BME280;77021;51.052;17.034;2024-03-23T10:45:13;98531.73;;;16.60;56.16
79004;BME280;77021;51.052;17.034;2024-03-23T10:47:59;98531.64;;;16.61;56.05
79004;BME280;77021;51.052;17.034;2024-03-23T10:50:44;98525.30;;;16.63;54.72
79004;BME280;77021;51.052;17.034;2024-03-23T10:53:30;98520.03;;;16.71;52.43
79004;BME280;77021;51.052;17.034;2024-03-23T10:56:20;98510.85;;;16.86;53.44
79004;BME280;77021;51.052;17.034;2024-03-23T10:59:09;98508.77;;;17.02;51.68
79004;BME280;77021;51.052;17.034;2024-03-23T11:01:58;98504.67;;;17.12;50.84
79004;BME280;77021;51.052;17.034;2024-03-23T11:04:47;98498.47;;;17.10;51.34
79004;BME280;77021;51.052;17.034;2024-03-23T11:07:33;98491.12;;;17.00;50.56
79004;BME280;77021;51.052;17.034;2024-03-23T11:13:35;98485.05;;;17.04;52.10
79004;BME280;77021;51.052;17.034;2024-03-23T11:16:25;98484.35;;;17.18;51.81
79004;BME280;77021;51.052;17.034;2024-03-23T11:19:43;98475.64;;;17.26;51.82
79004;BME280;77021;51.052;17.034;2024-03-23T11:22:42;98480.42;;;17.49;52.89
79004;BME280;77021;51.052;17.034;2024-03-23T11:25:34;98480.87;;;17.80;52.49
79004;BME280;77021;51.052;17.034;2024-03-23T11:28:21;98475.25;;;18.11;52.35
79004;BME280;77021;51.052;17.034;2024-03-23T11:31:11;98470.69;;;18.39;50.19
79004;BME280;77021;51.052;17.034;2024-03-23T11:34:06;98458.83;;;18.49;46.18
79004;BME280;77021;51.052;17.034;2024-03-23T11:37:04;98459.54;;;18.51;46.81
79004;BME280;77021;51.052;17.034;2024-03-23T11:39:50;98455.42;;;18.53;47.15
79004;BME280;77021;51.052;17.034;2024-03-23T11:42:36;98445.54;;;18.49;46.94
79004;BME280;77021;51.052;17.034;2024-03-23T11:45:23;98443.25;;;18.36;46.41
79004;BME280;77021;51.052;17.034;2024-03-23T11:48:10;98439.88;;;18.16;45.95
79004;BME280;77021;51.052;17.034;2024-03-23T11:50:57;98434.90;;;17.88;45.70
79004;BME280;77021;51.052;17.034;2024-03-23T11:53:43;98432.73;;;17.64;46.34
79004;BME280;77021;51.052;17.034;2024-03-23T11:56:29;98441.84;;;17.39;46.86
79004;BME280;77021;51.052;17.034;2024-03-23T11:59:31;98450.69;;;17.17;47.26
79004;BME280;77021;51.052;17.034;2024-03-23T12:02:18;98457.90;;;16.94;48.24
79004;BME280;77021;51.052;17.034;2024-03-23T12:05:16;98465.67;;;16.74;49.11
79004;BME280;77021;51.052;17.034;2024-03-23T12:08:17;98461.50;;;16.52;48.07
79004;BME280;77021;51.052;17.034;2024-03-23T12:11:12;98475.09;;;16.30;49.89
79004;BME280;77021;51.052;17.034;2024-03-23T12:14:02;98473.67;;;16.08;52.09
79004;BME280;77021;51.052;17.034;2024-03-23T12:16:49;98484.33;;;15.86;52.52
79004;BME280;77021;51.052;17.034;2024-03-23T12:19:35;98484.64;;;15.69;51.87
79004;BME280;77021;51.052;17.034;2024-03-23T12:22:22;98485.59;;;15.61;52.00
79004;BME280;77021;51.052;17.034;2024-03-23T12:25:08;98481.55;;;15.57;52.45
79004;BME280;77021;51.052;17.034;2024-03-23T12:27:58;98476.04;;;15.54;51.75
79004;BME280;77021;51.052;17.034;2024-03-23T12:30:50;98480.84;;;15.50;51.58
79004;BME280;77021;51.052;17.034;2024-03-23T12:33:36;98485.88;;;15.37;53.84
79004;BME280;77021;51.052;17.034;2024-03-23T12:36:23;98479.08;;;15.22;55.11
79004;BME280;77021;51.052;17.034;2024-03-23T12:39:09;98460.33;;;15.10;55.70
79004;BME280;77021;51.052;17.034;2024-03-23T12:41:56;98441.45;;;15.00;55.97
79004;BME280;77021;51.052;17.034;2024-03-23T12:44:42;98461.65;;;14.97;56.34
79004;BME280;77021;51.052;17.034;2024-03-23T12:47:32;98463.44;;;14.98;56.47
79004;BME280;77021;51.052;17.034;2024-03-23T12:50:19;98479.18;;;14.99;56.52
79004;BME280;77021;51.052;17.034;2024-03-23T12:53:06;98474.02;;;15.00;56.73
79004;BME280;77021;51.052;17.034;2024-03-23T12:55:53;98480.61;;;15.05;54.87
79004;BME280;77021;51.052;17.034;2024-03-23T12:58:39;98497.65;;;15.12;53.44
79004;BME280;77021;51.052;17.034;2024-03-23T13:01:26;98499.09;;;15.16;52.88
79004;BME280;77021;51.052;17.034;2024-03-23T13:04:12;98498.59;;;15.17;51.47
79004;BME280;77021;51.052;17.034;2024-03-23T13:06:59;98510.56;;;15.14;51.50
79004;BME280;77021;51.052;17.034;2024-03-23T13:09:46;98555.63;;;15.04;51.69
79004;BME280;77021;51.052;17.034;2024-03-23T13:12:32;98581.47;;;14.79;52.92
79004;BME280;77021;51.052;17.034;2024-03-23T13:15:21;98608.12;;;14.27;52.80
79004;BME280;77021;51.052;17.034;2024-03-23T13:18:07;98616.76;;;13.70;54.99
79004;BME280;77021;51.052;17.034;2024-03-23T13:20:53;98602.33;;;13.24;56.73
79004;BME280;77021;51.052;17.034;2024-03-23T13:23:40;98615.25;;;12.92;58.37
79004;BME280;77021;51.052;17.034;2024-03-23T13:26:29;98619.27;;;12.63;59.96
79004;BME280;77021;51.052;17.034;2024-03-23T13:29:15;98621.77;;;12.38;61.68
79004;BME280;77021;51.052;17.034;2024-03-23T13:32:02;98622.53;;;12.16;62.45
79004;BME280;77021;51.052;17.034;2024-03-23T13:34:49;98636.40;;;12.00;63.80
79004;BME280;77021;51.052;17.034;2024-03-23T13:37:36;98647.66;;;11.85;65.22
79004;BME280;77021;51.052;17.034;2024-03-23T13:40:23;98665.45;;;11.72;64.25
79004;BME280;77021;51.052;17.034;2024-03-23T13:43:09;98674.42;;;11.60;61.92
79004;BME280;77021;51.052;17.034;2024-03-23T13:45:57;98681.02;;;11.48;61.49
79004;BME280;77021;51.052;17.034;2024-03-23T13:48:43;98686.03;;;11.44;61.66
79004;BME280;77021;51.052;17.034;2024-03-23T13:51:30;98693.60;;;11.39;61.09
79004;BME280;77021;51.052;17.034;2024-03-23T13:54:18;98719.34;;;11.24;61.05
79004;BME280;77021;51.052;17.034;2024-03-23T13:57:04;98727.57;;;11.12;61.58
79004;BME280;77021;51.052;17.034;2024-03-23T13:59:50;98745.44;;;11.02;62.81
79004;BME280;77021;51.052;17.034;2024-03-23T14:02:36;98760.85;;;10.94;63.18
79004;BME280;77021;51.052;17.034;2024-03-23T14:05:41;98781.95;;;10.80;63.64
79004;BME280;77021;51.052;17.034;2024-03-23T14:08:27;98780.20;;;10.49;63.74
79004;BME280;77021;51.052;17.034;2024-03-23T14:11:13;98793.34;;;10.16;64.66
79004;BME280;77021;51.052;17.034;2024-03-23T14:14:00;98822.06;;;9.85;65.33
79004;BME280;77021;51.052;17.034;2024-03-23T14:16:46;98849.98;;;9.44;64.64
79004;BME280;77021;51.052;17.034;2024-03-23T14:19:32;98869.21;;;9.12;65.25
79004;BME280;77021;51.052;17.034;2024-03-23T14:22:22;98867.89;;;8.96;65.88
79004;BME280;77021;51.052;17.034;2024-03-23T14:25:09;98885.61;;;8.85;65.70
79004;BME280;77021;51.052;17.034;2024-03-23T14:27:55;98880.95;;;8.72;66.28
79004;BME280;77021;51.052;17.034;2024-03-23T14:30:41;98887.52;;;8.61;66.52
79004;BME280;77021;51.052;17.034;2024-03-23T14:33:28;98895.92;;;8.54;66.50
79004;BME280;77021;51.052;17.034;2024-03-23T14:36:15;98900.96;;;8.46;66.38
79004;BME280;77021;51.052;17.034;2024-03-23T14:39:03;98908.73;;;8.37;66.62
79004;BME280;77021;51.052;17.034;2024-03-23T14:41:50;98912.55;;;8.28;66.69
79004;BME280;77021;51.052;17.034;2024-03-23T14:44:38;98921.83;;;8.15;66.83
79004;BME280;77021;51.052;17.034;2024-03-23T14:47:27;98927.36;;;8.02;66.39
79004;BME280;77021;51.052;17.034;2024-03-23T14:50:14;98924.60;;;7.89;66.39
79004;BME280;77021;51.052;17.034;2024-03-23T14:53:02;98930.64;;;7.77;67.01
79004;BME280;77021;51.052;17.034;2024-03-23T14:55:48;98943.84;;;7.71;67.25
79004;BME280;77021;51.052;17.034;2024-03-23T14:58:36;98943.36;;;7.60;68.01
79004;BME280;77021;51.052;17.034;2024-03-23T15:01:22;98945.31;;;7.50;68.18
79004;BME280;77021;51.052;17.034;2024-03-23T15:04:09;98953.98;;;7.37;68.91
79004;BME280;77021;51.052;17.034;2024-03-23T15:06:56;98956.75;;;7.23;69.31
79004;BME280;77021;51.052;17.034;2024-03-23T15:09:42;98953.93;;;7.10;69.20
79004;BME280;77021;51.052;17.034;2024-03-23T15:12:29;98960.89;;;7.00;69.45
79004;BME280;77021;51.052;17.034;2024-03-23T15:15:15;98966.63;;;6.89;69.15
79004;BME280;77021;51.052;17.034;2024-03-23T15:18:02;98968.46;;;6.80;69.04
79004;BME280;77021;51.052;17.034;2024-03-23T15:20:56;98975.31;;;6.71;68.85
79004;BME280;77021;51.052;17.034;2024-03-23T15:23:42;98976.59;;;6.63;69.72
79004;BME280;77021;51.052;17.034;2024-03-23T15:26:30;98987.86;;;6.56;69.20
79004;BME280;77021;51.052;17.034;2024-03-23T15:29:17;98996.92;;;6.48;69.50
79004;BME280;77021;51.052;17.034;2024-03-23T15:32:03;99014.55;;;6.43;69.48
79004;BME280;77021;51.052;17.034;2024-03-23T15:34:50;99021.54;;;6.39;69.22
79004;BME280;77021;51.052;17.034;2024-03-23T15:37:36;99021.05;;;6.34;68.73
79004;BME280;77021;51.052;17.034;2024-03-23T15:40:22;99038.52;;;6.32;68.78
79004;BME280;77021;51.052;17.034;2024-03-23T15:43:08;99052.42;;;6.28;68.47
79004;BME280;77021;51.052;17.034;2024-03-23T15:46:13;99064.15;;;6.26;68.66
79004;BME280;77021;51.052;17.034;2024-03-23T15:49:01;99064.91;;;6.29;68.81
79004;BME280;77021;51.052;17.034;2024-03-23T15:51:47;99062.13;;;6.29;68.29
79004;BME280;77021;51.052;17.034;2024-03-23T15:54:33;99078.41;;;6.30;67.97
79004;BME280;77021;51.052;17.034;2024-03-23T15:57:20;99086.77;;;6.30;68.00
79004;BME280;77021;51.052;17.034;2024-03-23T16:00:09;99087.48;;;6.29;68.07
79004;BME280;77021;51.052;17.034;2024-03-23T16:02:55;99105.28;;;6.28;68.11
79004;BME280;77021;51.052;17.034;2024-03-23T16:05:41;99111.00;;;6.28;67.94
79004;BME280;77021;51.052;17.034;2024-03-23T16:08:27;99107.44;;;6.30;67.87
79004;BME280;77021;51.052;17.034;2024-03-23T16:11:14;99101.98;;;6.31;67.87
79004;BME280;77021;51.052;17.034;2024-03-23T16:14:00;99106.25;;;6.33;67.74
79004;BME280;77021;51.052;17.034;2024-03-23T16:16:46;99113.83;;;6.35;67.71
79004;BME280;77021;51.052;17.034;2024-03-23T16:19:33;99114.21;;;6.34;67.53
79004;BME280;77021;51.052;17.034;2024-03-23T16:22:19;99111.60;;;6.34;67.41
79004;BME280;77021;51.052;17.034;2024-03-23T16:25:06;99112.88;;;6.33;67.28
79004;BME280;77021;51.052;17.034;2024-03-23T16:27:53;99114.14;;;6.32;68.27
79004;BME280;77021;51.052;17.034;2024-03-23T16:30:40;99118.39;;;6.30;68.09
79004;BME280;77021;51.052;17.034;2024-03-23T16:33:28;99126.56;;;6.22;67.83
79004;BME280;77021;51.052;17.034;2024-03-23T16:36:14;99105.15;;;6.15;67.68
79004;BME280;77021;51.052;17.034;2024-03-23T16:39:02;99086.25;;;6.10;67.36
79004;BME280;77021;51.052;17.034;2024-03-23T16:41:48;99092.73;;;6.08;67.08
79004;BME280;77021;51.052;17.034;2024-03-23T16:44:34;99094.61;;;6.05;66.52
79004;BME280;77021;51.052;17.034;2024-03-23T16:47:22;99099.68;;;6.01;66.45
79004;BME280;77021;51.052;17.034;2024-03-23T16:50:10;99107.81;;;5.98;66.43
79004;BME280;77021;51.052;17.034;2024-03-23T16:52:56;99116.34;;;5.92;66.52
79004;BME280;77021;51.052;17.034;2024-03-23T16:55:42;99116.67;;;5.89;66.60
79004;BME280;77021;51.052;17.034;2024-03-23T16:58:30;99117.09;;;5.82;66.22
79004;BME280;77021;51.052;17.034;2024-03-23T17:01:17;99117.16;;;5.77;65.97
79004;BME280;77021;51.052;17.034;2024-03-23T17:04:05;99116.80;;;5.73;65.88
79004;BME280;77021;51.052;17.034;2024-03-23T17:06:52;99136.61;;;5.68;65.98
79004;BME280;77021;51.052;17.034;2024-03-23T17:09:47;99144.05;;;5.65;66.03
79004;BME280;77021;51.052;17.034;2024-03-23T17:12:35;99147.37;;;5.60;66.17
79004;BME280;77021;51.052;17.034;2024-03-23T17:15:21;99144.98;;;5.55;66.24
79004;BME280;77021;51.052;17.034;2024-03-23T17:18:10;99151.78;;;5.50;66.20
79004;BME280;77021;51.052;17.034;2024-03-23T17:20:56;99155.52;;;5.48;66.30
79004;BME280;77021;51.052;17.034;2024-03-23T17:23:44;99171.23;;;5.45;66.37
79004;BME280;77021;51.052;17.034;2024-03-23T17:26:30;99191.92;;;5.44;65.89
79004;BME280;77021;51.052;17.034;2024-03-23T17:29:18;99224.65;;;5.42;65.86
79004;BME280;77021;51.052;17.034;2024-03-23T17:32:05;99265.38;;;5.38;65.72
79004;BME280;77021;51.052;17.034;2024-03-23T17:34:51;99277.96;;;5.36;65.66
79004;BME280;77021;51.052;17.034;2024-03-23T17:37:41;99278.91;;;5.34;65.71
79004;BME280;77021;51.052;17.034;2024-03-23T17:40:28;99287.16;;;5.32;65.40
79004;BME280;77021;51.052;17.034;2024-03-23T17:43:15;99294.05;;;5.29;65.63
79004;BME280;77021;51.052;17.034;2024-03-23T17:46:01;99297.31;;;5.25;65.53
79004;BME280;77021;51.052;17.034;2024-03-23T17:48:47;99303.27;;;5.23;65.67
79004;BME280;77021;51.052;17.034;2024-03-23T17:51:33;99311.61;;;5.23;65.91
79004;BME280;77021;51.052;17.034;2024-03-23T17:54:21;99323.04;;;5.23;65.89
79004;BME280;77021;51.052;17.034;2024-03-23T17:57:07;99321.46;;;5.23;65.94
79004;BME280;77021;51.052;17.034;2024-03-23T18:00:13;99316.45;;;5.23;66.22
79004;BME280;77021;51.052;17.034;2024-03-23T18:03:02;99305.81;;;5.20;66.16
79004;BME280;77021;51.052;17.034;2024-03-23T18:05:50;99293.94;;;5.18;66.47
79004;BME280;77021;51.052;17.034;2024-03-23T18:08:36;99289.70;;;5.15;66.47
79004;BME280;77021;51.052;17.034;2024-03-23T18:11:24;99293.10;;;5.12;66.59
79004;BME280;77021;51.052;17.034;2024-03-23T18:14:11;99297.58;;;5.08;66.79
79004;BME280;77021;51.052;17.034;2024-03-23T18:16:57;99302.56;;;5.05;66.89
79004;BME280;77021;51.052;17.034;2024-03-23T18:19:43;99311.24;;;5.05;67.31
79004;BME280;77021;51.052;17.034;2024-03-23T18:22:30;99311.74;;;5.05;67.03
79004;BME280;77021;51.052;17.034;2024-03-23T18:25:16;99312.23;;;5.06;67.01
79004;BME280;77021;51.052;17.034;2024-03-23T18:28:02;99309.35;;;5.04;67.12
79004;BME280;77021;51.052;17.034;2024-03-23T18:31:01;99315.16;;;5.01;67.21
79004;BME280;77021;51.052;17.034;2024-03-23T18:33:48;99319.77;;;4.98;67.22
79004;BME280;77021;51.052;17.034;2024-03-23T18:36:34;99309.13;;;4.96;67.37
79004;BME280;77021;51.052;17.034;2024-03-23T18:39:20;99300.72;;;4.93;67.40